Terminal Aerodrome Forecast
Issued by NWS

Home | Current Version | Previous Version | Text Only | Print | Product List | Glossary On
Versions: 1 2 3 4 5 6 7 8 9 10 11 12 13 14 15 16 17 18 19
000
FTUS46 KLOX 062300 RRA
TAFSBA
TAF
KSBA 062340Z 0700/0724 26015KT P6SM SKC
     FM070200 27006KT P6SM SKC
     FM070500 VRB03KT P6SM SKC
     FM071000 VRB03KT P6SM BKN025
     FM071400 09007KT P6SM OVC025
     FM071800 19009KT P6SM OVC030
     FM072100 26011KT P6SM OVC025=

USA.gov is the U.S. government's official web portal to all federal, state and local government web resources and services.